sensor_id;sensor_type;location;lat;lon;timestamp;pressure;altitude;pressure_sealevel;temperature;humidity
19210;BME280;9738;51.654;14.238;2023-03-03T00:00:15;101151.63;;;-1.07;100.00
19210;BME280;9738;51.654;14.238;2023-03-03T00:02:41;101149.03;;;-1.07;100.00
19210;BME280;9738;51.654;14.238;2023-03-03T00:05:07;101146.66;;;-1.15;100.00
19210;BME280;9738;51.654;14.238;2023-03-03T00:07:33;101146.81;;;-1.18;100.00
19210;BME280;9738;51.654;14.238;2023-03-03T00:09:59;101144.50;;;-1.26;100.00
19210;BME280;9738;51.654;14.238;2023-03-03T00:12:29;101144.50;;;-1.26;100.00
19210;BME280;9738;51.654;14.238;2023-03-03T00:14:56;101138.31;;;-1.25;100.00
19210;BME280;9738;51.654;14.238;2023-03-03T00:17:27;101136.50;;;-1.23;100.00
19210;BME280;9738;51.654;14.238;2023-03-03T00:19:54;101142.53;;;-1.21;100.00
19210;BME280;9738;51.654;14.238;2023-03-03T00:22:39;101134.91;;;-1.27;100.00
19210;BME280;9738;51.654;14.238;2023-03-03T00:25:27;101133.16;;;-1.26;100.00
19210;BME280;9738;51.654;14.238;2023-03-03T00:27:55;101134.91;;;-1.27;100.00
19210;BME280;9738;51.654;14.238;2023-03-03T00:30:26;101153.25;;;-1.27;100.00
19210;BME280;9738;51.654;14.238;2023-03-03T00:32:53;101155.88;;;-1.27;100.00
19210;BME280;9738;51.654;14.238;2023-03-03T00:35:32;101158.50;;;-1.27;100.00
19210;BME280;9738;51.654;14.238;2023-03-03T00:38:12;101149.22;;;-1.36;100.00
19210;BME280;9738;51.654;14.238;2023-03-03T00:40:40;101153.75;;;-1.41;100.00
19210;BME280;9738;51.654;14.238;2023-03-03T00:43:28;101152.06;;;-1.42;100.00
19210;BME280;9738;51.654;14.238;2023-03-03T00:45:58;101146.13;;;-1.47;100.00
19210;BME280;9738;51.654;14.238;2023-03-03T00:51:06;101149.66;;;-1.48;100.00
19210;BME280;9738;51.654;14.238;2023-03-03T00:53:38;101146.09;;;-1.45;100.00
19210;BME280;9738;51.654;14.238;2023-03-03T00:56:05;101134.81;;;-1.47;100.00
19210;BME280;9738;51.654;14.238;2023-03-03T00:58:31;101132.16;;;-1.46;100.00
19210;BME280;9738;51.654;14.238;2023-03-03T01:00:56;101126.59;;;-1.38;100.00
19210;BME280;9738;51.654;14.238;2023-03-03T01:03:24;101129.84;;;-1.31;100.00
19210;BME280;9738;51.654;14.238;2023-03-03T01:05:52;101144.72;;;-1.32;100.00
19210;BME280;9738;51.654;14.238;2023-03-03T01:08:18;101141.41;;;-1.37;100.00
19210;BME280;9738;51.654;14.238;2023-03-03T01:10:49;101149.34;;;-1.39;100.00
19210;BME280;9738;51.654;14.238;2023-03-03T01:13:19;101147.66;;;-1.41;100.00
19210;BME280;9738;51.654;14.238;2023-03-03T01:15:47;101146.72;;;-1.39;100.00
19210;BME280;9738;51.654;14.238;2023-03-03T01:18:13;101149.03;;;-1.31;100.00
19210;BME280;9738;51.654;14.238;2023-03-03T01:20:39;101142.78;;;-1.27;100.00
19210;BME280;9738;51.654;14.238;2023-03-03T01:23:06;101130.31;;;-1.22;100.00
19210;BME280;9738;51.654;14.238;2023-03-03T01:25:32;101120.66;;;-1.20;100.00
19210;BME280;9738;51.654;14.238;2023-03-03T01:27:58;101115.53;;;-1.23;100.00
19210;BME280;9738;51.654;14.238;2023-03-03T01:30:25;101120.75;;;-1.23;100.00
19210;BME280;9738;51.654;14.238;2023-03-03T01:32:51;101112.19;;;-1.26;100.00
19210;BME280;9738;51.654;14.238;2023-03-03T01:35:18;101118.44;;;-1.30;100.00
19210;BME280;9738;51.654;14.238;2023-03-03T01:37:44;101118.59;;;-1.33;100.00
19210;BME280;9738;51.654;14.238;2023-03-03T01:40:21;101126.47;;;-1.35;100.00
19210;BME280;9738;51.654;14.238;2023-03-03T01:42:48;101129.22;;;-1.38;100.00
19210;BME280;9738;51.654;14.238;2023-03-03T01:45:26;101133.78;;;-1.43;100.00
19210;BME280;9738;51.654;14.238;2023-03-03T01:48:00;101125.38;;;-1.51;100.00
19210;BME280;9738;51.654;14.238;2023-03-03T01:52:57;101126.75;;;-1.65;100.00
19210;BME280;9738;51.654;14.238;2023-03-03T01:55:29;101127.69;;;-1.67;100.00
19210;BME280;9738;51.654;14.238;2023-03-03T01:58:02;101121.81;;;-1.74;100.00
19210;BME280;9738;51.654;14.238;2023-03-03T02:00:30;101123.50;;;-1.71;100.00
19210;BME280;9738;51.654;14.238;2023-03-03T02:02:57;101122.91;;;-1.79;100.00
19210;BME280;9738;51.654;14.238;2023-03-03T02:05:23;101120.97;;;-1.74;100.00
19210;BME280;9738;51.654;14.238;2023-03-03T02:07:50;101127.19;;;-1.77;100.00
19210;BME280;9738;51.654;14.238;2023-03-03T02:10:18;101127.19;;;-1.77;100.00
19210;BME280;9738;51.654;14.238;2023-03-03T02:12:51;101129.00;;;-1.79;100.00
19210;BME280;9738;51.654;14.238;2023-03-03T02:15:30;101128.91;;;-1.76;100.00
19210;BME280;9738;51.654;14.238;2023-03-03T02:18:05;101140.09;;;-1.72;100.00
19210;BME280;9738;51.654;14.238;2023-03-03T02:23:26;101133.16;;;-1.73;100.00
19210;BME280;9738;51.654;14.238;2023-03-03T02:28:27;101116.72;;;-1.77;100.00
19210;BME280;9738;51.654;14.238;2023-03-03T02:30:55;101120.13;;;-1.75;100.00
19210;BME280;9738;51.654;14.238;2023-03-03T02:33:22;101115.09;;;-1.81;100.00
19210;BME280;9738;51.654;14.238;2023-03-03T02:35:48;101110.50;;;-1.74;100.00
19210;BME280;9738;51.654;14.238;2023-03-03T02:41:04;101113.91;;;-1.72;100.00
19210;BME280;9738;51.654;14.238;2023-03-03T02:44:04;101106.25;;;-1.77;100.00
19210;BME280;9738;51.654;14.238;2023-03-03T02:46:34;101110.50;;;-1.74;100.00
19210;BME280;9738;51.654;14.238;2023-03-03T02:49:01;101124.34;;;-1.71;100.00
19210;BME280;9738;51.654;14.238;2023-03-03T02:51:27;101116.59;;;-1.74;100.00
19210;BME280;9738;51.654;14.238;2023-03-03T02:53:54;101126.16;;;-1.73;100.00
19210;BME280;9738;51.654;14.238;2023-03-03T02:56:20;101121.81;;;-1.74;100.00
19210;BME280;9738;51.654;14.238;2023-03-03T02:58:45;101112.28;;;-1.75;100.00
19210;BME280;9738;51.654;14.238;2023-03-03T03:01:12;101108.84;;;-1.77;100.00
19210;BME280;9738;51.654;14.238;2023-03-03T03:03:38;101108.66;;;-1.72;100.00
19210;BME280;9738;51.654;14.238;2023-03-03T03:06:03;101109.56;;;-1.72;100.00
19210;BME280;9738;51.654;14.238;2023-03-03T03:08:30;101112.16;;;-1.72;100.00
19210;BME280;9738;51.654;14.238;2023-03-03T03:10:55;101104.19;;;-1.69;100.00
19210;BME280;9738;51.654;14.238;2023-03-03T03:13:22;101098.72;;;-1.63;100.00
19210;BME280;9738;51.654;14.238;2023-03-03T03:15:49;101109.75;;;-1.54;100.00
19210;BME280;9738;51.654;14.238;2023-03-03T03:18:15;101106.19;;;-1.52;100.00
19210;BME280;9738;51.654;14.238;2023-03-03T03:20:41;101108.72;;;-1.50;100.00
19210;BME280;9738;51.654;14.238;2023-03-03T03:23:08;101114.88;;;-1.51;100.00
19210;BME280;9738;51.654;14.238;2023-03-03T03:25:34;101111.28;;;-1.49;100.00
19210;BME280;9738;51.654;14.238;2023-03-03T03:28:02;101112.88;;;-1.45;100.00
19210;BME280;9738;51.654;14.238;2023-03-03T03:30:28;101124.28;;;-1.46;100.00
19210;BME280;9738;51.654;14.238;2023-03-03T03:32:54;101124.22;;;-1.44;100.00
19210;BME280;9738;51.654;14.238;2023-03-03T03:35:20;101134.78;;;-1.46;100.00
19210;BME280;9738;51.654;14.238;2023-03-03T03:37:46;101143.63;;;-1.50;100.00
19210;BME280;9738;51.654;14.238;2023-03-03T03:40:12;101147.25;;;-1.52;100.00
19210;BME280;9738;51.654;14.238;2023-03-03T03:42:38;101151.66;;;-1.54;100.00
19210;BME280;9738;51.654;14.238;2023-03-03T03:45:05;101142.88;;;-1.53;100.00
19210;BME280;9738;51.654;14.238;2023-03-03T03:47:31;101140.34;;;-1.55;100.00
19210;BME280;9738;51.654;14.238;2023-03-03T03:49:56;101133.47;;;-1.57;100.00
19210;BME280;9738;51.654;14.238;2023-03-03T03:52:23;101138.91;;;-1.64;100.00
19210;BME280;9738;51.654;14.238;2023-03-03T03:54:48;101138.91;;;-1.64;100.00
19210;BME280;9738;51.654;14.238;2023-03-03T03:57:14;101142.25;;;-1.60;100.00
19210;BME280;9738;51.654;14.238;2023-03-03T03:59:41;101150.13;;;-1.60;100.00
19210;BME280;9738;51.654;14.238;2023-03-03T04:02:06;101152.56;;;-1.55;100.00
19210;BME280;9738;51.654;14.238;2023-03-03T04:04:32;101153.50;;;-1.56;100.00
19210;BME280;9738;51.654;14.238;2023-03-03T04:06:58;101153.56;;;-1.58;100.00
19210;BME280;9738;51.654;14.238;2023-03-03T04:09:24;101159.88;;;-1.64;100.00
19210;BME280;9738;51.654;14.238;2023-03-03T04:11:50;101157.34;;;-1.67;100.00
19210;BME280;9738;51.654;14.238;2023-03-03T04:14:16;101158.47;;;-1.74;100.00
19210;BME280;9738;51.654;14.238;2023-03-03T04:16:42;101166.34;;;-1.74;100.00
19210;BME280;9738;51.654;14.238;2023-03-03T04:19:08;101170.78;;;-1.76;100.00
19210;BME280;9738;51.654;14.238;2023-03-03T04:21:35;101174.25;;;-1.75;100.00
19210;BME280;9738;51.654;14.238;2023-03-03T04:24:00;101175.25;;;-1.78;100.00
19210;BME280;9738;51.654;14.238;2023-03-03T04:26:26;101177.16;;;-1.83;100.00
19210;BME280;9738;51.654;14.238;2023-03-03T04:28:52;101171.22;;;-1.88;100.00
19210;BME280;9738;51.654;14.238;2023-03-03T04:31:18;101162.69;;;-1.93;100.00
19210;BME280;9738;51.654;14.238;2023-03-03T04:33:45;101157.44;;;-1.93;100.00
19210;BME280;9738;51.654;14.238;2023-03-03T04:36:11;101154.88;;;-1.95;100.00
19210;BME280;9738;51.654;14.238;2023-03-03T04:38:37;101157.72;;;-2.01;100.00
19210;BME280;9738;51.654;14.238;2023-03-03T04:41:02;101164.72;;;-2.01;100.00
19210;BME280;9738;51.654;14.238;2023-03-03T04:43:29;101173.50;;;-2.04;100.00
19210;BME280;9738;51.654;14.238;2023-03-03T04:45:55;101167.41;;;-2.03;100.00
19210;BME280;9738;51.654;14.238;2023-03-03T04:48:21;101158.69;;;-2.03;100.00
19210;BME280;9738;51.654;14.238;2023-03-03T04:50:47;101156.88;;;-2.01;100.00
19210;BME280;9738;51.654;14.238;2023-03-03T04:53:13;101147.31;;;-2.02;100.00
19210;BME280;9738;51.654;14.238;2023-03-03T04:55:39;101138.53;;;-2.01;100.00
19210;BME280;9738;51.654;14.238;2023-03-03T04:58:06;101136.94;;;-2.05;100.00
19210;BME280;9738;51.654;14.238;2023-03-03T05:00:32;101129.91;;;-2.03;100.00
19210;BME280;9738;51.654;14.238;2023-03-03T05:02:57;101141.88;;;-1.98;100.00
19210;BME280;9738;51.654;14.238;2023-03-03T05:05:25;101149.72;;;-1.96;100.00
19210;BME280;9738;51.654;14.238;2023-03-03T05:07:50;101153.06;;;-1.93;100.00
19210;BME280;9738;51.654;14.238;2023-03-03T05:10:16;101140.81;;;-1.92;100.00
19210;BME280;9738;51.654;14.238;2023-03-03T05:12:43;101141.84;;;-1.96;100.00
19210;BME280;9738;51.654;14.238;2023-03-03T05:15:10;101146.97;;;-1.93;100.00
19210;BME280;9738;51.654;14.238;2023-03-03T05:17:36;101142.72;;;-1.96;100.00
19210;BME280;9738;51.654;14.238;2023-03-03T05:20:04;101130.31;;;-1.91;100.00
19210;BME280;9738;51.654;14.238;2023-03-03T05:22:33;101117.03;;;-1.86;100.00
19210;BME280;9738;51.654;14.238;2023-03-03T05:24:59;101117.00;;;-1.84;100.00
19210;BME280;9738;51.654;14.238;2023-03-03T05:27:25;101118.75;;;-1.85;100.00
19210;BME280;9738;51.654;14.238;2023-03-03T05:29:51;101115.03;;;-1.79;100.00
19210;BME280;9738;51.654;14.238;2023-03-03T05:32:16;101120.28;;;-1.79;100.00
19210;BME280;9738;51.654;14.238;2023-03-03T05:34:43;101122.28;;;-1.86;100.00
19210;BME280;9738;51.654;14.238;2023-03-03T05:37:08;101117.00;;;-1.84;100.00
19210;BME280;9738;51.654;14.238;2023-03-03T05:39:34;101118.75;;;-1.85;100.00
19210;BME280;9738;51.654;14.238;2023-03-03T05:42:01;101120.47;;;-1.84;100.00
19210;BME280;9738;51.654;14.238;2023-03-03T05:44:27;101114.47;;;-1.87;100.00
19210;BME280;9738;51.654;14.238;2023-03-03T05:46:53;101124.16;;;-1.89;100.00
19210;BME280;9738;51.654;14.238;2023-03-03T05:49:19;101123.25;;;-1.88;100.00
19210;BME280;9738;51.654;14.238;2023-03-03T05:51:45;101134.44;;;-1.85;100.00
19210;BME280;9738;51.654;14.238;2023-03-03T05:54:10;101153.75;;;-1.87;100.00
19210;BME280;9738;51.654;14.238;2023-03-03T05:56:37;101162.47;;;-1.87;100.00
19210;BME280;9738;51.654;14.238;2023-03-03T05:59:03;101153.59;;;-1.83;100.00
19210;BME280;9738;51.654;14.238;2023-03-03T06:01:28;101159.63;;;-1.81;100.00
19210;BME280;9738;51.654;14.238;2023-03-03T06:03:54;101148.22;;;-1.80;100.00
19210;BME280;9738;51.654;14.238;2023-03-03T06:06:20;101157.63;;;-1.74;100.00
19210;BME280;9738;51.654;14.238;2023-03-03T06:08:46;101160.94;;;-1.69;100.00
19210;BME280;9738;51.654;14.238;2023-03-03T06:11:12;101163.50;;;-1.68;100.00
19210;BME280;9738;51.654;14.238;2023-03-03T06:13:38;101153.72;;;-1.63;100.00
19210;BME280;9738;51.654;14.238;2023-03-03T06:16:06;101160.50;;;-1.57;100.00
19210;BME280;9738;51.654;14.238;2023-03-03T06:18:32;101170.84;;;-1.54;100.00
19210;BME280;9738;51.654;14.238;2023-03-03T06:20:58;101171.69;;;-1.53;100.00
19210;BME280;9738;51.654;14.238;2023-03-03T06:23:23;101176.00;;;-1.51;100.00
19210;BME280;9738;51.654;14.238;2023-03-03T06:25:50;101181.97;;;-1.47;100.00
19210;BME280;9738;51.654;14.238;2023-03-03T06:28:17;101183.69;;;-1.46;100.00
19210;BME280;9738;51.654;14.238;2023-03-03T06:30:43;101181.06;;;-1.46;100.00
19210;BME280;9738;51.654;14.238;2023-03-03T06:33:10;101182.88;;;-1.48;100.00
19210;BME280;9738;51.654;14.238;2023-03-03T06:35:36;101185.41;;;-1.45;100.00
19210;BME280;9738;51.654;14.238;2023-03-03T06:38:01;101185.41;;;-1.45;100.00
19210;BME280;9738;51.654;14.238;2023-03-03T06:40:28;101188.03;;;-1.47;100.00
19210;BME280;9738;51.654;14.238;2023-03-03T06:42:53;101189.72;;;-1.44;100.00
19210;BME280;9738;51.654;14.238;2023-03-03T06:45:20;101187.94;;;-1.44;100.00
19210;BME280;9738;51.654;14.238;2023-03-03T06:47:46;101183.56;;;-1.43;100.00
19210;BME280;9738;51.654;14.238;2023-03-03T06:50:12;101186.97;;;-1.41;100.00
19210;BME280;9738;51.654;14.238;2023-03-03T06:52:38;101188.66;;;-1.40;100.00
19210;BME280;9738;51.654;14.238;2023-03-03T06:55:14;101195.53;;;-1.36;100.00
19210;BME280;9738;51.654;14.238;2023-03-03T06:57:41;101193.69;;;-1.34;100.00
19210;BME280;9738;51.654;14.238;2023-03-03T07:02:41;101188.13;;;-1.25;100.00
19210;BME280;9738;51.654;14.238;2023-03-03T07:05:16;101183.59;;;-1.21;100.00
19210;BME280;9738;51.654;14.238;2023-03-03T07:07:42;101189.72;;;-1.21;100.00
19210;BME280;9738;51.654;14.238;2023-03-03T07:10:19;101188.56;;;-1.14;100.00
19210;BME280;9738;51.654;14.238;2023-03-03T07:12:46;101192.91;;;-1.13;100.00
19210;BME280;9738;51.654;14.238;2023-03-03T07:15:16;101184.88;;;-1.08;100.00
19210;BME280;9738;51.654;14.238;2023-03-03T07:17:45;101183.75;;;-1.02;100.00
19210;BME280;9738;51.654;14.238;2023-03-03T07:20:20;101188.09;;;-1.01;100.00
19210;BME280;9738;51.654;14.238;2023-03-03T07:22:46;101184.50;;;-0.99;100.00
19210;BME280;9738;51.654;14.238;2023-03-03T07:25:20;101193.16;;;-0.97;100.00
19210;BME280;9738;51.654;14.238;2023-03-03T07:27:47;101188.88;;;-0.99;100.00
19210;BME280;9738;51.654;14.238;2023-03-03T07:30:23;101202.94;;;-1.02;100.00
19210;BME280;9738;51.654;14.238;2023-03-03T07:32:52;101201.09;;;-0.98;100.00
19210;BME280;9738;51.654;14.238;2023-03-03T07:35:36;101211.47;;;-0.95;100.00
19210;BME280;9738;51.654;14.238;2023-03-03T07:40:47;101223.44;;;-0.88;100.00
19210;BME280;9738;51.654;14.238;2023-03-03T07:46:16;101239.56;;;-0.77;100.00
19210;BME280;9738;51.654;14.238;2023-03-03T07:48:45;101231.59;;;-0.74;100.00
19210;BME280;9738;51.654;14.238;2023-03-03T07:53:47;101243.06;;;-0.76;100.00
19210;BME280;9738;51.654;14.238;2023-03-03T07:56:26;101247.44;;;-0.77;100.00
19210;BME280;9738;51.654;14.238;2023-03-03T07:58:52;101249.91;;;-0.72;100.00
19210;BME280;9738;51.654;14.238;2023-03-03T08:01:28;101244.72;;;-0.74;100.00
19210;BME280;9738;51.654;14.238;2023-03-03T08:03:56;101250.88;;;-0.75;100.00
19210;BME280;9738;51.654;14.238;2023-03-03T08:06:38;101245.50;;;-0.72;100.00
19210;BME280;9738;51.654;14.238;2023-03-03T08:14:33;101228.91;;;-0.72;100.00
19210;BME280;9738;51.654;14.238;2023-03-03T08:17:00;101237.81;;;-0.76;100.00
19210;BME280;9738;51.654;14.238;2023-03-03T08:19:28;101230.00;;;-0.78;100.00
19210;BME280;9738;51.654;14.238;2023-03-03T08:22:09;101227.50;;;-0.81;100.00
19210;BME280;9738;51.654;14.238;2023-03-03T08:24:37;101227.38;;;-0.78;100.00
19210;BME280;9738;51.654;14.238;2023-03-03T08:27:03;101217.63;;;-0.74;100.00
19210;BME280;9738;51.654;14.238;2023-03-03T08:29:28;101225.25;;;-0.68;100.00
19210;BME280;9738;51.654;14.238;2023-03-03T08:31:55;101229.53;;;-0.66;100.00
19210;BME280;9738;51.654;14.238;2023-03-03T08:34:20;101227.69;;;-0.64;100.00
19210;BME280;9738;51.654;14.238;2023-03-03T08:36:46;101234.66;;;-0.63;100.00
19210;BME280;9738;51.654;14.238;2023-03-03T08:39:12;101234.66;;;-0.63;100.00
19210;BME280;9738;51.654;14.238;2023-03-03T08:41:38;101234.66;;;-0.63;100.00
19210;BME280;9738;51.654;14.238;2023-03-03T08:44:11;101237.22;;;-0.61;100.00
19210;BME280;9738;51.654;14.238;2023-03-03T08:46:37;101238.84;;;-0.59;100.00
19210;BME280;9738;51.654;14.238;2023-03-03T08:49:03;101240.53;;;-0.56;100.00
19210;BME280;9738;51.654;14.238;2023-03-03T08:51:29;101239.69;;;-0.57;100.00
19210;BME280;9738;51.654;14.238;2023-03-03T08:53:55;101252.13;;;-0.62;100.00
19210;BME280;9738;51.654;14.238;2023-03-03T08:56:21;101240.03;;;-0.66;100.00
19210;BME280;9738;51.654;14.238;2023-03-03T08:58:47;101252.22;;;-0.65;100.00
19210;BME280;9738;51.654;14.238;2023-03-03T09:01:14;101243.56;;;-0.67;100.00
19210;BME280;9738;51.654;14.238;2023-03-03T09:03:43;101246.94;;;-0.63;100.00
19210;BME280;9738;51.654;14.238;2023-03-03T09:06:09;101237.94;;;-0.58;100.00
19210;BME280;9738;51.654;14.238;2023-03-03T09:08:36;101231.81;;;-0.57;100.00
19210;BME280;9738;51.654;14.238;2023-03-03T09:11:08;101232.50;;;-0.53;100.00
19210;BME280;9738;51.654;14.238;2023-03-03T09:13:34;101230.63;;;-0.49;100.00
19210;BME280;9738;51.654;14.238;2023-03-03T09:16:09;101235.81;;;-0.48;100.00
19210;BME280;9738;51.654;14.238;2023-03-03T09:18:37;101244.53;;;-0.47;100.00
19210;BME280;9738;51.654;14.238;2023-03-03T09:21:22;101253.19;;;-0.45;100.00
19210;BME280;9738;51.654;14.238;2023-03-03T09:23:54;101242.69;;;-0.45;100.00
19210;BME280;9738;51.654;14.238;2023-03-03T09:26:28;101246.13;;;-0.43;100.00
19210;BME280;9738;51.654;14.238;2023-03-03T09:28:56;101244.22;;;-0.40;100.00
19210;BME280;9738;51.654;14.238;2023-03-03T09:31:37;101247.84;;;-0.42;100.00
19210;BME280;9738;51.654;14.238;2023-03-03T09:34:19;101251.19;;;-0.39;100.00
19210;BME280;9738;51.654;14.238;2023-03-03T09:36:47;101256.44;;;-0.39;100.00
19210;BME280;9738;51.654;14.238;2023-03-03T09:39:23;101249.97;;;-0.52;100.00
19210;BME280;9738;51.654;14.238;2023-03-03T09:42:11;101250.81;;;-0.51;100.00
19210;BME280;9738;51.654;14.238;2023-03-03T09:53:14;101262.66;;;-0.41;100.00
19210;BME280;9738;51.654;14.238;2023-03-03T09:55:57;101269.56;;;-0.39;100.00
19210;BME280;9738;51.654;14.238;2023-03-03T09:58:35;101266.31;;;-0.45;100.00
19210;BME280;9738;51.654;14.238;2023-03-03T10:09:55;101270.06;;;-0.29;100.00
19210;BME280;9738;51.654;14.238;2023-03-03T10:12:27;101273.22;;;-0.21;100.00
19210;BME280;9738;51.654;14.238;2023-03-03T10:15:08;101280.00;;;-0.15;100.00
19210;BME280;9738;51.654;14.238;2023-03-03T10:18:08;101283.00;;;-0.24;100.00
19210;BME280;9738;51.654;14.238;2023-03-03T10:20:49;101273.84;;;-0.36;100.00
19210;BME280;9738;51.654;14.238;2023-03-03T10:23:23;101286.59;;;-0.27;100.00
19210;BME280;9738;51.654;14.238;2023-03-03T10:26:20;101280.00;;;-0.37;100.00
19210;BME280;9738;51.654;14.238;2023-03-03T10:34:15;101283.34;;;-0.34;100.00
19210;BME280;9738;51.654;14.238;2023-03-03T10:39:39;101278.47;;;-0.21;100.00
19210;BME280;9738;51.654;14.238;2023-03-03T10:42:23;101280.31;;;-0.23;100.00
19210;BME280;9738;51.654;14.238;2023-03-03T10:53:53;101273.84;;;-0.36;100.00
19210;BME280;9738;51.654;14.238;2023-03-03T10:59:27;101265.91;;;-0.35;100.00
19210;BME280;9738;51.654;14.238;2023-03-03T11:02:02;101264.25;;;-0.37;100.00
19210;BME280;9738;51.654;14.238;2023-03-03T11:05:02;101271.03;;;-0.32;100.00
19210;BME280;9738;51.654;14.238;2023-03-03T11:13:05;101253.13;;;-0.22;100.00
19210;BME280;9738;51.654;14.238;2023-03-03T11:21:54;101240.84;;;-0.21;100.00
19210;BME280;9738;51.654;14.238;2023-03-03T11:24:37;101247.03;;;-0.22;100.00
19210;BME280;9738;51.654;14.238;2023-03-03T11:27:16;101234.66;;;-0.19;100.00
19210;BME280;9738;51.654;14.238;2023-03-03T11:30:04;101230.97;;;-0.15;100.00
19210;BME280;9738;51.654;14.238;2023-03-03T11:32:55;101232.81;;;-0.17;100.00
19210;BME280;9738;51.654;14.238;2023-03-03T11:35:28;101235.03;;;-0.08;100.00
19210;BME280;9738;51.654;14.238;2023-03-03T11:40:52;101235.28;;;-0.14;100.00
19210;BME280;9738;51.654;14.238;2023-03-03T11:46:26;101228.47;;;-0.18;100.00
19210;BME280;9738;51.654;14.238;2023-03-03T11:49:16;101227.22;;;-0.09;100.00
19210;BME280;9738;51.654;14.238;2023-03-03T11:51:52;101229.06;;;-0.11;100.00
19210;BME280;9738;51.654;14.238;2023-03-03T11:54:31;101219.41;;;-0.11;100.00
19210;BME280;9738;51.654;14.238;2023-03-03T11:57:13;101220.13;;;-0.07;100.00
19210;BME280;9738;51.654;14.238;2023-03-03T11:59:47;101220.09;;;-0.06;100.00
19210;BME280;9738;51.654;14.238;2023-03-03T12:02:42;101208.25;;;0.05;100.00
19210;BME280;9738;51.654;14.238;2023-03-03T12:08:40;101198.72;;;0.22;100.00
19210;BME280;9738;51.654;14.238;2023-03-03T12:14:25;101197.47;;;0.31;100.00
19210;BME280;9738;51.654;14.238;2023-03-03T12:17:02;101203.56;;;0.32;100.00
19210;BME280;9738;51.654;14.238;2023-03-03T12:19:34;101209.66;;;0.13;100.00
19210;BME280;9738;51.654;14.238;2023-03-03T12:25:13;101203.56;;;0.13;100.00
19210;BME280;9738;51.654;14.238;2023-03-03T12:30:33;101199.84;;;0.17;100.00
19210;BME280;9738;51.654;14.238;2023-03-03T12:33:19;101204.06;;;0.21;100.00
19210;BME280;9738;51.654;14.238;2023-03-03T12:36:00;101199.47;;;0.26;100.00
19210;BME280;9738;51.654;14.238;2023-03-03T12:41:36;101200.13;;;0.11;100.00
19210;BME280;9738;51.654;14.238;2023-03-03T12:44:20;101202.75;;;0.11;100.00
19210;BME280;9738;51.654;14.238;2023-03-03T12:46:57;101199.50;;;0.24;100.00
19210;BME280;9738;51.654;14.238;2023-03-03T12:49:33;101197.69;;;0.26;100.00
19210;BME280;9738;51.654;14.238;2023-03-03T12:52:22;101191.50;;;0.28;100.00
19210;BME280;9738;51.654;14.238;2023-03-03T12:58:22;101187.50;;;0.39;100.00
19210;BME280;9738;51.654;14.238;2023-03-03T13:01:02;101186.56;;;0.40;100.00
19210;BME280;9738;51.654;14.238;2023-03-03T13:03:44;101191.69;;;0.43;100.00
19210;BME280;9738;51.654;14.238;2023-03-03T13:06:19;101181.75;;;0.50;100.00
19210;BME280;9738;51.654;14.238;2023-03-03T13:11:50;101182.59;;;0.50;100.00
19210;BME280;9738;51.654;14.238;2023-03-03T13:14:26;101171.50;;;0.44;100.00
19210;BME280;9738;51.654;14.238;2023-03-03T13:19:45;101162.16;;;0.38;100.00
19210;BME280;9738;51.654;14.238;2023-03-03T13:22:40;101160.84;;;0.28;100.00
19210;BME280;9738;51.654;14.238;2023-03-03T13:28:20;101160.00;;;0.28;100.00
19210;BME280;9738;51.654;14.238;2023-03-03T13:30:48;101158.78;;;0.35;100.00
19210;BME280;9738;51.654;14.238;2023-03-03T13:35:51;101158.06;;;0.31;100.00
19210;BME280;9738;51.654;14.238;2023-03-03T13:38:46;101150.97;;;0.33;100.00
19210;BME280;9738;51.654;14.238;2023-03-03T13:41:30;101155.81;;;0.42;100.00
19210;BME280;9738;51.654;14.238;2023-03-03T13:44:10;101151.63;;;0.38;100.00
19210;BME280;9738;51.654;14.238;2023-03-03T13:46:42;101153.19;;;0.42;100.00
19210;BME280;9738;51.654;14.238;2023-03-03T13:49:24;101160.00;;;0.46;100.00
19210;BME280;9738;51.654;14.238;2023-03-03T13:52:08;101155.47;;;0.50;100.00
19210;BME280;9738;51.654;14.238;2023-03-03T13:57:12;101156.97;;;0.56;100.00
19210;BME280;9738;51.654;14.238;2023-03-03T14:02:56;101149.06;;;0.56;100.00
19210;BME280;9738;51.654;14.238;2023-03-03T14:06:02;101158.88;;;0.52;100.00
19210;BME280;9738;51.654;14.238;2023-03-03T14:08:43;101146.81;;;0.48;100.00
19210;BME280;9738;51.654;14.238;2023-03-03T14:11:23;101148.84;;;0.41;100.00
19210;BME280;9738;51.654;14.238;2023-03-03T14:14:00;101146.22;;;0.41;100.00
19210;BME280;9738;51.654;14.238;2023-03-03T14:19:02;101140.03;;;0.42;100.00
19210;BME280;9738;51.654;14.238;2023-03-03T14:21:37;101141.13;;;0.38;100.00
19210;BME280;9738;51.654;14.238;2023-03-03T14:24:17;101136.84;;;0.36;100.00
19210;BME280;9738;51.654;14.238;2023-03-03T14:29:20;101141.25;;;0.35;100.00
19210;BME280;9738;51.654;14.238;2023-03-03T14:31:48;101141.13;;;0.38;100.00
19210;BME280;9738;51.654;14.238;2023-03-03T14:34:36;101132.03;;;0.45;100.00
19210;BME280;9738;51.654;14.238;2023-03-03T14:37:26;101148.50;;;0.49;100.00
19210;BME280;9738;51.654;14.238;2023-03-03T14:40:18;101146.69;;;0.51;100.00
19210;BME280;9738;51.654;14.238;2023-03-03T14:42:48;101142.31;;;0.50;100.00
19210;BME280;9738;51.654;14.238;2023-03-03T14:45:36;101138.72;;;0.52;100.00
19210;BME280;9738;51.654;14.238;2023-03-03T14:53:20;101138.94;;;0.67;100.00
19210;BME280;9738;51.654;14.238;2023-03-03T14:55:51;101147.75;;;0.66;100.00
19210;BME280;9738;51.654;14.238;2023-03-03T14:58:47;101129.63;;;0.60;100.00
19210;BME280;9738;51.654;14.238;2023-03-03T15:01:33;101132.94;;;0.63;100.00
19210;BME280;9738;51.654;14.238;2023-03-03T15:04:06;101135.09;;;0.55;100.00
19210;BME280;9738;51.654;14.238;2023-03-03T15:06:40;101136.84;;;0.54;100.00
19210;BME280;9738;51.654;14.238;2023-03-03T15:09:33;101124.78;;;0.50;100.00
19210;BME280;9738;51.654;14.238;2023-03-03T15:15:04;101125.66;;;0.51;100.00
19210;BME280;9738;51.654;14.238;2023-03-03T15:17:37;101120.25;;;0.54;100.00